Sublimity, Oregon
Current Conditions -  °F | °C
As of 10:19 PM on Tuesday 27 Jan 2015 (Local Time) from KSLE Reporting Station
Overcast Overcast  
Wind Chill: 51°   Ceiling: 3600
Heat Index: 51°   Visibility: 10mi
Dew Point: 48°   Wind: 3mph
Humidity: 89%   Direction: 130°SE
Pressure: 30.25"   Gusts: NA
Location:  44.83°N, 122.79°W
Report Text: KSLE 280619Z AUTO 13003KT 10SM SCT025 BKN036 OVC044 11/09 A3025 RMK AO2 T01060089
Loading
Personal Weather Stations






























Interactive Weather Map New forecast layout! Learn more

10-Day Weather Forecast

Advertisements
Track Severe Weather on mobile